sensor_id;sensor_type;location;lat;lon;timestamp;pressure;altitude;pressure_sealevel;temperature;humidity
11223;BME280;5668;52.012;8.724;2023-03-03T00:02:21;100977.25;;;3.73;93.49
11223;BME280;5668;52.012;8.724;2023-03-03T00:04:48;100972.13;;;3.73;93.53
11223;BME280;5668;52.012;8.724;2023-03-03T00:07:16;100969.53;;;3.73;93.60
11223;BME280;5668;52.012;8.724;2023-03-03T00:09:49;100965.25;;;3.73;93.59
11223;BME280;5668;52.012;8.724;2023-03-03T00:12:22;100959.94;;;3.78;93.48
11223;BME280;5668;52.012;8.724;2023-03-03T00:14:50;100965.09;;;3.78;93.54
11223;BME280;5668;52.012;8.724;2023-03-03T00:17:22;100967.53;;;3.82;93.61
11223;BME280;5668;52.012;8.724;2023-03-03T00:19:50;100962.22;;;3.87;93.46
11223;BME280;5668;52.012;8.724;2023-03-03T00:22:25;100971.75;;;3.83;93.23
11223;BME280;5668;52.012;8.724;2023-03-03T00:24:59;100966.53;;;3.86;93.66
11223;BME280;5668;52.012;8.724;2023-03-03T00:27:29;100983.59;;;3.89;92.63
11223;BME280;5668;52.012;8.724;2023-03-03T00:29:57;100968.25;;;3.86;92.66
11223;BME280;5668;52.012;8.724;2023-03-03T00:32:29;100973.44;;;3.84;92.22
11223;BME280;5668;52.012;8.724;2023-03-03T00:35:07;100963.22;;;3.83;92.54
11223;BME280;5668;52.012;8.724;2023-03-03T00:37:44;100965.94;;;3.78;93.02
11223;BME280;5668;52.012;8.724;2023-03-03T00:40:32;100963.34;;;3.78;92.60
11223;BME280;5668;52.012;8.724;2023-03-03T00:43:11;100966.78;;;3.79;93.68
11223;BME280;5668;52.012;8.724;2023-03-03T00:45:44;100959.88;;;3.81;92.68
11223;BME280;5668;52.012;8.724;2023-03-03T00:48:23;100956.41;;;3.82;93.27
11223;BME280;5668;52.012;8.724;2023-03-03T00:50:52;100956.41;;;3.82;92.76
11223;BME280;5668;52.012;8.724;2023-03-03T00:53:21;100957.97;;;3.86;93.08
11223;BME280;5668;52.012;8.724;2023-03-03T00:55:51;100959.63;;;3.88;92.42
11223;BME280;5668;52.012;8.724;2023-03-03T00:58:19;100963.97;;;3.86;92.37
11223;BME280;5668;52.012;8.724;2023-03-03T01:00:47;100967.38;;;3.87;92.47
11223;BME280;5668;52.012;8.724;2023-03-03T01:03:17;100969.03;;;3.89;92.67
11223;BME280;5668;52.012;8.724;2023-03-03T01:05:45;100967.22;;;3.92;91.76
11223;BME280;5668;52.012;8.724;2023-03-03T01:08:14;100970.69;;;3.91;92.33
11223;BME280;5668;52.012;8.724;2023-03-03T01:10:44;100961.31;;;3.89;91.88
11223;BME280;5668;52.012;8.724;2023-03-03T01:13:13;100963.13;;;3.86;91.85
11223;BME280;5668;52.012;8.724;2023-03-03T01:15:44;100961.44;;;3.85;92.29
11223;BME280;5668;52.012;8.724;2023-03-03T01:18:12;100967.41;;;3.85;91.73
11223;BME280;5668;52.012;8.724;2023-03-03T01:20:40;100974.25;;;3.86;91.71
11223;BME280;5668;52.012;8.724;2023-03-03T01:23:07;100978.53;;;3.86;91.68
11223;BME280;5668;52.012;8.724;2023-03-03T01:25:35;100972.56;;;3.85;91.32
11223;BME280;5668;52.012;8.724;2023-03-03T01:28:02;100978.53;;;3.86;91.60
11223;BME280;5668;52.012;8.724;2023-03-03T01:30:31;100975.97;;;3.86;91.77
11223;BME280;5668;52.012;8.724;2023-03-03T01:32:58;100969.19;;;3.83;91.34
11223;BME280;5668;52.012;8.724;2023-03-03T01:35:26;100967.41;;;3.85;91.34
11223;BME280;5668;52.012;8.724;2023-03-03T01:37:54;100962.38;;;3.82;91.21
11223;BME280;5668;52.012;8.724;2023-03-03T01:40:25;100962.47;;;3.79;91.34
11223;BME280;5668;52.012;8.724;2023-03-03T01:42:52;100961.63;;;3.79;91.50
11223;BME280;5668;52.012;8.724;2023-03-03T01:45:21;100973.59;;;3.80;92.14
11223;BME280;5668;52.012;8.724;2023-03-03T01:47:55;100966.69;;;3.82;92.05
11223;BME280;5668;52.012;8.724;2023-03-03T01:50:35;100975.28;;;3.81;92.30
11223;BME280;5668;52.012;8.724;2023-03-03T01:53:10;100973.69;;;3.77;92.73
11223;BME280;5668;52.012;8.724;2023-03-03T01:55:40;100970.22;;;3.78;92.11
11223;BME280;5668;52.012;8.724;2023-03-03T01:58:10;100964.25;;;3.77;92.40
11223;BME280;5668;52.012;8.724;2023-03-03T02:00:41;100962.63;;;3.75;92.29
11223;BME280;5668;52.012;8.724;2023-03-03T02:03:12;100961.84;;;3.73;93.14
11223;BME280;5668;52.012;8.724;2023-03-03T02:05:40;100963.59;;;3.71;92.09
11223;BME280;5668;52.012;8.724;2023-03-03T02:08:10;100972.19;;;3.70;92.32
11223;BME280;5668;52.012;8.724;2023-03-03T02:10:40;100977.34;;;3.70;93.10
11223;BME280;5668;52.012;8.724;2023-03-03T02:13:07;100972.31;;;3.67;93.21
11223;BME280;5668;52.012;8.724;2023-03-03T02:15:34;100960.38;;;3.64;92.58
11223;BME280;5668;52.012;8.724;2023-03-03T02:18:05;100974.06;;;3.65;92.85
11223;BME280;5668;52.012;8.724;2023-03-03T02:20:44;100968.09;;;3.64;92.74
11223;BME280;5668;52.012;8.724;2023-03-03T02:23:17;100971.53;;;3.63;92.93
11223;BME280;5668;52.012;8.724;2023-03-03T02:25:59;100966.31;;;3.66;94.02
11223;BME280;5668;52.012;8.724;2023-03-03T02:28:31;100966.38;;;3.65;93.46
11223;BME280;5668;52.012;8.724;2023-03-03T02:31:00;100969.75;;;3.67;93.59
11223;BME280;5668;52.012;8.724;2023-03-03T02:33:28;100973.28;;;3.63;92.77
11223;BME280;5668;52.012;8.724;2023-03-03T02:35:55;100974.16;;;3.62;94.05
11223;BME280;5668;52.012;8.724;2023-03-03T02:38:27;100963.94;;;3.60;92.48
11223;BME280;5668;52.012;8.724;2023-03-03T02:41:05;100970.91;;;3.57;93.59
11223;BME280;5668;52.012;8.724;2023-03-03T02:43:40;100968.25;;;3.60;93.22
11223;BME280;5668;52.012;8.724;2023-03-03T02:46:11;100979.28;;;3.62;93.92
11223;BME280;5668;52.012;8.724;2023-03-03T02:48:39;100971.50;;;3.65;93.19
11223;BME280;5668;52.012;8.724;2023-03-03T02:51:06;100977.56;;;3.62;92.90
11223;BME280;5668;52.012;8.724;2023-03-03T02:53:33;100977.53;;;3.64;93.06
11223;BME280;5668;52.012;8.724;2023-03-03T02:56:02;100974.22;;;3.60;93.79
11223;BME280;5668;52.012;8.724;2023-03-03T02:58:29;100973.38;;;3.60;93.05
11223;BME280;5668;52.012;8.724;2023-03-03T03:00:57;100972.59;;;3.58;93.95
11223;BME280;5668;52.012;8.724;2023-03-03T03:03:24;100969.97;;;3.59;93.96
11223;BME280;5668;52.012;8.724;2023-03-03T03:05:51;100969.00;;;3.62;93.19
11223;BME280;5668;52.012;8.724;2023-03-03T03:08:19;100962.22;;;3.61;93.17
11223;BME280;5668;52.012;8.724;2023-03-03T03:10:46;100973.31;;;3.61;93.77
11223;BME280;5668;52.012;8.724;2023-03-03T03:13:15;100970.75;;;3.61;92.95
11223;BME280;5668;52.012;8.724;2023-03-03T03:15:45;100970.75;;;3.61;93.85
11223;BME280;5668;52.012;8.724;2023-03-03T03:18:12;100967.44;;;3.58;92.97
11223;BME280;5668;52.012;8.724;2023-03-03T03:20:39;100959.72;;;3.58;93.13
11223;BME280;5668;52.012;8.724;2023-03-03T03:23:07;100953.75;;;3.57;93.21
11223;BME280;5668;52.012;8.724;2023-03-03T03:25:35;100955.47;;;3.57;93.12
11223;BME280;5668;52.012;8.724;2023-03-03T03:28:07;100959.72;;;3.58;94.00
11223;BME280;5668;52.012;8.724;2023-03-03T03:30:36;100957.16;;;3.58;93.94
11223;BME280;5668;52.012;8.724;2023-03-03T03:33:04;100949.53;;;3.55;92.96
11223;BME280;5668;52.012;8.724;2023-03-03T03:35:32;100960.00;;;3.48;93.29
11223;BME280;5668;52.012;8.724;2023-03-03T03:37:59;100965.25;;;3.45;93.54
11223;BME280;5668;52.012;8.724;2023-03-03T03:40:26;100963.47;;;3.47;93.85
11223;BME280;5668;52.012;8.724;2023-03-03T03:42:54;100974.63;;;3.46;93.74
11223;BME280;5668;52.012;8.724;2023-03-03T03:45:22;100974.69;;;3.45;93.99
11223;BME280;5668;52.012;8.724;2023-03-03T03:47:50;100981.44;;;3.47;94.50
11223;BME280;5668;52.012;8.724;2023-03-03T03:50:18;100977.09;;;3.49;93.73
11223;BME280;5668;52.012;8.724;2023-03-03T03:52:46;100979.72;;;3.48;93.61
11223;BME280;5668;52.012;8.724;2023-03-03T03:55:14;100978.03;;;3.47;93.80
11223;BME280;5668;52.012;8.724;2023-03-03T03:57:41;100971.31;;;3.43;93.70
11223;BME280;5668;52.012;8.724;2023-03-03T04:00:10;100974.81;;;3.40;93.77
11223;BME280;5668;52.012;8.724;2023-03-03T04:02:37;100978.22;;;3.41;94.11
11223;BME280;5668;52.012;8.724;2023-03-03T04:05:07;100977.34;;;3.42;94.85
11223;BME280;5668;52.012;8.724;2023-03-03T04:07:34;100979.88;;;3.43;93.83
11223;BME280;5668;52.012;8.724;2023-03-03T04:10:01;100976.41;;;3.44;94.41
11223;BME280;5668;52.012;8.724;2023-03-03T04:12:29;100978.16;;;3.44;94.03
11223;BME280;5668;52.012;8.724;2023-03-03T04:15:00;100977.34;;;3.42;94.00
11223;BME280;5668;52.012;8.724;2023-03-03T04:17:28;100979.13;;;3.38;93.29
11223;BME280;5668;52.012;8.724;2023-03-03T04:19:55;100974.06;;;3.37;93.68
11223;BME280;5668;52.012;8.724;2023-03-03T04:22:24;100975.75;;;3.38;93.91
11223;BME280;5668;52.012;8.724;2023-03-03T04:24:51;100964.72;;;3.34;93.87
11223;BME280;5668;52.012;8.724;2023-03-03T04:27:18;100960.44;;;3.35;93.52
11223;BME280;5668;52.012;8.724;2023-03-03T04:29:45;100968.97;;;3.35;93.63
11223;BME280;5668;52.012;8.724;2023-03-03T04:32:13;100968.13;;;3.35;92.96
11223;BME280;5668;52.012;8.724;2023-03-03T04:34:40;100971.53;;;3.35;92.81
11223;BME280;5668;52.012;8.724;2023-03-03T04:37:07;100965.59;;;3.33;92.34
11223;BME280;5668;52.012;8.724;2023-03-03T04:39:36;100961.34;;;3.32;92.89
11223;BME280;5668;52.012;8.724;2023-03-03T04:42:03;100966.47;;;3.32;93.13
11223;BME280;5668;52.012;8.724;2023-03-03T04:44:31;100967.38;;;3.31;92.51
11223;BME280;5668;52.012;8.724;2023-03-03T04:46:58;100968.16;;;3.33;92.69
11223;BME280;5668;52.012;8.724;2023-03-03T04:49:25;100972.38;;;3.36;92.18
11223;BME280;5668;52.012;8.724;2023-03-03T04:51:52;100980.13;;;3.34;92.19
11223;BME280;5668;52.012;8.724;2023-03-03T04:54:20;100976.69;;;3.35;92.00
11223;BME280;5668;52.012;8.724;2023-03-03T04:56:48;100968.97;;;3.35;91.59
11223;BME280;5668;52.012;8.724;2023-03-03T04:59:16;100981.81;;;3.35;91.07
11223;BME280;5668;52.012;8.724;2023-03-03T05:01:43;100986.91;;;3.37;91.78
11223;BME280;5668;52.012;8.724;2023-03-03T05:04:11;100992.09;;;3.35;92.25
11223;BME280;5668;52.012;8.724;2023-03-03T05:06:38;100996.47;;;3.32;91.80
11223;BME280;5668;52.012;8.724;2023-03-03T05:09:06;100992.28;;;3.29;91.36
11223;BME280;5668;52.012;8.724;2023-03-03T05:11:33;101006.84;;;3.29;91.61
11223;BME280;5668;52.012;8.724;2023-03-03T05:14:01;100998.28;;;3.28;92.03
11223;BME280;5668;52.012;8.724;2023-03-03T05:16:29;101008.59;;;3.27;90.91
11223;BME280;5668;52.012;8.724;2023-03-03T05:18:56;101012.91;;;3.26;91.36
11223;BME280;5668;52.012;8.724;2023-03-03T05:21:23;101013.81;;;3.24;90.43
11223;BME280;5668;52.012;8.724;2023-03-03T05:23:50;101010.47;;;3.22;91.28
11223;BME280;5668;52.012;8.724;2023-03-03T05:26:18;101009.63;;;3.21;91.64
11223;BME280;5668;52.012;8.724;2023-03-03T05:28:45;101011.31;;;3.22;92.07
11223;BME280;5668;52.012;8.724;2023-03-03T05:31:13;101018.03;;;3.26;92.88
11223;BME280;5668;52.012;8.724;2023-03-03T05:33:41;101011.22;;;3.25;92.95
11223;BME280;5668;52.012;8.724;2023-03-03T05:36:08;101018.03;;;3.26;92.62
11223;BME280;5668;52.012;8.724;2023-03-03T05:38:35;101018.13;;;3.23;93.48
11223;BME280;5668;52.012;8.724;2023-03-03T05:41:03;101013.16;;;3.17;92.22
11223;BME280;5668;52.012;8.724;2023-03-03T05:43:30;101018.34;;;3.16;92.27
11223;BME280;5668;52.012;8.724;2023-03-03T05:45:57;101007.25;;;3.15;92.81
11223;BME280;5668;52.012;8.724;2023-03-03T05:48:27;101013.16;;;3.17;92.75
11223;BME280;5668;52.012;8.724;2023-03-03T05:50:56;101018.28;;;3.17;92.77
11223;BME280;5668;52.012;8.724;2023-03-03T05:53:23;101005.50;;;3.16;93.30
11223;BME280;5668;52.012;8.724;2023-03-03T05:55:51;100999.59;;;3.12;93.75
11223;BME280;5668;52.012;8.724;2023-03-03T05:58:18;101004.75;;;3.12;93.46
11223;BME280;5668;52.012;8.724;2023-03-03T06:00:45;101011.56;;;3.13;93.20
11223;BME280;5668;52.012;8.724;2023-03-03T06:03:13;100999.53;;;3.15;94.40
11223;BME280;5668;52.012;8.724;2023-03-03T06:05:42;101011.56;;;3.13;92.92
11223;BME280;5668;52.012;8.724;2023-03-03T06:08:09;101010.91;;;3.06;92.89
11223;BME280;5668;52.012;8.724;2023-03-03T06:10:36;101011.78;;;3.05;93.00
11223;BME280;5668;52.012;8.724;2023-03-03T06:13:03;101015.22;;;3.04;93.71
11223;BME280;5668;52.012;8.724;2023-03-03T06:15:30;101018.63;;;3.05;93.20
11223;BME280;5668;52.012;8.724;2023-03-03T06:17:58;101010.06;;;3.06;93.26
11223;BME280;5668;52.012;8.724;2023-03-03T06:20:25;101008.38;;;3.05;93.38
11223;BME280;5668;52.012;8.724;2023-03-03T06:22:53;101010.94;;;3.05;92.59
11223;BME280;5668;52.012;8.724;2023-03-03T06:25:21;101014.31;;;3.07;93.02
11223;BME280;5668;52.012;8.724;2023-03-03T06:27:48;101013.38;;;3.09;93.55
11223;BME280;5668;52.012;8.724;2023-03-03T06:30:15;101021.06;;;3.09;92.98
11223;BME280;5668;52.012;8.724;2023-03-03T06:32:44;101025.28;;;3.12;92.61
11223;BME280;5668;52.012;8.724;2023-03-03T06:35:11;101033.88;;;3.11;92.52
11223;BME280;5668;52.012;8.724;2023-03-03T06:37:38;101030.50;;;3.09;92.87
11223;BME280;5668;52.012;8.724;2023-03-03T06:40:09;101038.94;;;3.14;92.59
11223;BME280;5668;52.012;8.724;2023-03-03T06:42:37;101042.28;;;3.16;92.99
11223;BME280;5668;52.012;8.724;2023-03-03T06:45:05;101043.97;;;3.17;93.65
11223;BME280;5668;52.012;8.724;2023-03-03T06:47:32;101043.09;;;3.18;93.17
11223;BME280;5668;52.012;8.724;2023-03-03T06:50:00;101044.81;;;3.18;93.44
11223;BME280;5668;52.012;8.724;2023-03-03T06:52:27;101035.50;;;3.15;93.55
11223;BME280;5668;52.012;8.724;2023-03-03T06:54:57;101045.81;;;3.12;92.40
11223;BME280;5668;52.012;8.724;2023-03-03T06:57:27;101047.59;;;3.10;92.81
11223;BME280;5668;52.012;8.724;2023-03-03T07:00:11;101054.41;;;3.11;92.73
11223;BME280;5668;52.012;8.724;2023-03-03T07:02:40;101055.22;;;3.13;93.55
11223;BME280;5668;52.012;8.724;2023-03-03T07:05:11;101063.72;;;3.15;93.51
11223;BME280;5668;52.012;8.724;2023-03-03T07:07:40;101070.59;;;3.15;92.80
11223;BME280;5668;52.012;8.724;2023-03-03T07:10:18;101070.59;;;3.15;92.61
11223;BME280;5668;52.012;8.724;2023-03-03T07:12:49;101075.75;;;3.13;92.34
11223;BME280;5668;52.012;8.724;2023-03-03T07:15:18;101073.19;;;3.13;93.47
11223;BME280;5668;52.012;8.724;2023-03-03T07:17:48;101078.31;;;3.13;93.02
11223;BME280;5668;52.012;8.724;2023-03-03T07:20:20;101081.78;;;3.12;92.83
11223;BME280;5668;52.012;8.724;2023-03-03T07:22:48;101083.50;;;3.11;93.02
11223;BME280;5668;52.012;8.724;2023-03-03T07:25:24;101084.34;;;3.12;93.63
11223;BME280;5668;52.012;8.724;2023-03-03T07:27:57;101093.81;;;3.10;92.61
11223;BME280;5668;52.012;8.724;2023-03-03T07:30:28;101092.13;;;3.09;93.20
11223;BME280;5668;52.012;8.724;2023-03-03T07:32:56;101088.69;;;3.08;92.42
11223;BME280;5668;52.012;8.724;2023-03-03T07:35:35;101088.78;;;3.07;92.42
11223;BME280;5668;52.012;8.724;2023-03-03T07:38:16;101090.47;;;3.08;92.33
11223;BME280;5668;52.012;8.724;2023-03-03T07:40:48;101094.69;;;3.09;93.36
11223;BME280;5668;52.012;8.724;2023-03-03T07:43:34;101102.38;;;3.09;92.63
11223;BME280;5668;52.012;8.724;2023-03-03T07:46:25;101103.22;;;3.09;93.67
11223;BME280;5668;52.012;8.724;2023-03-03T07:48:54;101103.31;;;3.06;92.87
11223;BME280;5668;52.012;8.724;2023-03-03T07:51:24;101105.94;;;3.05;93.57
11223;BME280;5668;52.012;8.724;2023-03-03T07:53:53;101109.41;;;3.02;92.83
11223;BME280;5668;52.012;8.724;2023-03-03T07:56:27;101111.94;;;3.04;92.79
11223;BME280;5668;52.012;8.724;2023-03-03T07:58:57;101108.50;;;3.05;93.41
11223;BME280;5668;52.012;8.724;2023-03-03T08:01:36;101112.75;;;3.06;93.53
11223;BME280;5668;52.012;8.724;2023-03-03T08:04:12;101118.75;;;3.05;93.39
11223;BME280;5668;52.012;8.724;2023-03-03T08:06:45;101118.81;;;3.03;92.52
11223;BME280;5668;52.012;8.724;2023-03-03T08:09:45;101121.50;;;2.99;93.40
11223;BME280;5668;52.012;8.724;2023-03-03T08:12:26;101118.94;;;2.99;92.79
11223;BME280;5668;52.012;8.724;2023-03-03T08:15:01;101124.78;;;3.04;93.03
11223;BME280;5668;52.012;8.724;2023-03-03T08:17:39;101122.06;;;3.08;93.43
11223;BME280;5668;52.012;8.724;2023-03-03T08:20:38;101125.50;;;3.09;92.52
11223;BME280;5668;52.012;8.724;2023-03-03T08:23:07;101119.44;;;3.11;92.73
11223;BME280;5668;52.012;8.724;2023-03-03T08:25:35;101121.16;;;3.11;92.85
11223;BME280;5668;52.012;8.724;2023-03-03T08:28:02;101123.88;;;3.06;92.09
11223;BME280;5668;52.012;8.724;2023-03-03T08:30:30;101124.63;;;3.10;92.21
11223;BME280;5668;52.012;8.724;2023-03-03T08:32:58;101123.69;;;3.13;92.43
11223;BME280;5668;52.012;8.724;2023-03-03T08:35:26;101117.66;;;3.15;92.56
11223;BME280;5668;52.012;8.724;2023-03-03T08:37:53;101122.72;;;3.17;92.07
11223;BME280;5668;52.012;8.724;2023-03-03T08:40:21;101120.13;;;3.18;92.70
11223;BME280;5668;52.012;8.724;2023-03-03T08:42:48;101120.16;;;3.17;92.22
11223;BME280;5668;52.012;8.724;2023-03-03T08:45:16;101119.41;;;3.13;92.44
11223;BME280;5668;52.012;8.724;2023-03-03T08:47:44;101126.13;;;3.17;92.40
11223;BME280;5668;52.012;8.724;2023-03-03T08:50:12;101127.78;;;3.20;91.71
11223;BME280;5668;52.012;8.724;2023-03-03T08:52:40;101121.66;;;3.24;91.83
11223;BME280;5668;52.012;8.724;2023-03-03T08:55:08;101124.16;;;3.27;91.73
11223;BME280;5668;52.012;8.724;2023-03-03T08:57:35;101130.19;;;3.26;91.18
11223;BME280;5668;52.012;8.724;2023-03-03T09:00:05;101127.59;;;3.27;91.50
11223;BME280;5668;52.012;8.724;2023-03-03T09:02:32;101126.66;;;3.30;91.00
11223;BME280;5668;52.012;8.724;2023-03-03T09:05:01;101133.41;;;3.34;91.57
11223;BME280;5668;52.012;8.724;2023-03-03T09:07:28;101129.13;;;3.33;91.30
11223;BME280;5668;52.012;8.724;2023-03-03T09:09:56;101127.25;;;3.39;92.31
11223;BME280;5668;52.012;8.724;2023-03-03T09:12:28;101135.72;;;3.43;91.35
11223;BME280;5668;52.012;8.724;2023-03-03T09:14:59;101134.81;;;3.45;92.20
11223;BME280;5668;52.012;8.724;2023-03-03T09:17:30;101139.88;;;3.47;91.36
11223;BME280;5668;52.012;8.724;2023-03-03T09:20:29;101145.03;;;3.47;92.28
11223;BME280;5668;52.012;8.724;2023-03-03T09:22:52;101140.72;;;3.47;92.07
11223;BME280;5668;52.012;8.724;2023-03-03T09:25:22;101139.81;;;3.50;91.33
11223;BME280;5668;52.012;8.724;2023-03-03T09:27:53;101144.03;;;3.53;91.69
11223;BME280;5668;52.012;8.724;2023-03-03T09:30:36;101137.94;;;3.55;91.39
11223;BME280;5668;52.012;8.724;2023-03-03T09:33:21;101139.63;;;3.56;91.53
11223;BME280;5668;52.012;8.724;2023-03-03T09:35:53;101141.31;;;3.57;92.23
11223;BME280;5668;52.012;8.724;2023-03-03T09:38:27;101143.84;;;3.59;91.12
11223;BME280;5668;52.012;8.724;2023-03-03T09:41:36;101143.75;;;3.62;91.48
11223;BME280;5668;52.012;8.724;2023-03-03T09:47:26;101148.81;;;3.65;91.36
11223;BME280;5668;52.012;8.724;2023-03-03T09:50:05;101150.41;;;3.69;90.78
11223;BME280;5668;52.012;8.724;2023-03-03T09:52:43;101148.66;;;3.71;90.54
11223;BME280;5668;52.012;8.724;2023-03-03T09:55:21;101151.19;;;3.72;91.01
11223;BME280;5668;52.012;8.724;2023-03-03T09:58:08;101155.41;;;3.75;90.33
11223;BME280;5668;52.012;8.724;2023-03-03T10:00:49;101164.78;;;3.76;90.73
11223;BME280;5668;52.012;8.724;2023-03-03T10:03:35;101159.56;;;3.79;90.40
11223;BME280;5668;52.012;8.724;2023-03-03T10:06:10;101156.91;;;3.82;90.58
11223;BME280;5668;52.012;8.724;2023-03-03T10:08:50;101157.59;;;3.87;90.39
11223;BME280;5668;52.012;8.724;2023-03-03T10:11:23;101158.31;;;3.92;90.06
11223;BME280;5668;52.012;8.724;2023-03-03T10:14:09;101170.16;;;3.98;89.97
11223;BME280;5668;52.012;8.724;2023-03-03T10:17:04;101166.66;;;4.00;90.35
11223;BME280;5668;52.012;8.724;2023-03-03T10:19:40;101164.13;;;3.99;89.72
11223;BME280;5668;52.012;8.724;2023-03-03T10:22:19;101167.44;;;4.02;89.56
11223;BME280;5668;52.012;8.724;2023-03-03T10:25:06;101172.59;;;4.02;89.95
11223;BME280;5668;52.012;8.724;2023-03-03T10:27:47;101172.59;;;4.02;89.83
11223;BME280;5668;52.012;8.724;2023-03-03T10:30:23;101164.88;;;4.02;89.67
11223;BME280;5668;52.012;8.724;2023-03-03T10:32:57;101167.44;;;4.02;89.44
11223;BME280;5668;52.012;8.724;2023-03-03T10:35:57;101169.03;;;4.06;88.64
11223;BME280;5668;52.012;8.724;2023-03-03T10:38:35;101169.84;;;4.08;89.39
11223;BME280;5668;52.012;8.724;2023-03-03T10:41:18;101168.00;;;4.13;89.22
11223;BME280;5668;52.012;8.724;2023-03-03T10:44:00;101174.72;;;4.17;88.26
11223;BME280;5668;52.012;8.724;2023-03-03T10:46:42;101173.78;;;4.20;88.14
11223;BME280;5668;52.012;8.724;2023-03-03T10:49:25;101171.91;;;4.25;88.93
11223;BME280;5668;52.012;8.724;2023-03-03T10:55:20;101169.97;;;4.33;87.73
11223;BME280;5668;52.012;8.724;2023-03-03T10:58:02;101172.50;;;4.35;87.66
11223;BME280;5668;52.012;8.724;2023-03-03T11:00:34;101175.84;;;4.37;87.04
11223;BME280;5668;52.012;8.724;2023-03-03T11:03:38;101174.06;;;4.39;87.63
11223;BME280;5668;52.012;8.724;2023-03-03T11:06:15;101172.31;;;4.41;88.09
11223;BME280;5668;52.012;8.724;2023-03-03T11:08:47;101169.53;;;4.47;87.85
11223;BME280;5668;52.012;8.724;2023-03-03T11:11:23;101172.03;;;4.50;87.67
11223;BME280;5668;52.012;8.724;2023-03-03T11:13:58;101159.03;;;4.53;87.51
11223;BME280;5668;52.012;8.724;2023-03-03T11:16:44;101158.06;;;4.57;87.67
11223;BME280;5668;52.012;8.724;2023-03-03T11:19:32;101159.66;;;4.61;87.76
11223;BME280;5668;52.012;8.724;2023-03-03T11:22:12;101153.56;;;4.63;88.05
11223;BME280;5668;52.012;8.724;2023-03-03T11:24:54;101156.81;;;4.68;87.39
11223;BME280;5668;52.012;8.724;2023-03-03T11:27:53;101159.34;;;4.70;86.80
11223;BME280;5668;52.012;8.724;2023-03-03T11:30:31;101161.06;;;4.71;87.44
11223;BME280;5668;52.012;8.724;2023-03-03T11:33:03;101152.38;;;4.74;87.38
11223;BME280;5668;52.012;8.724;2023-03-03T11:35:37;101154.81;;;4.78;87.21
11223;BME280;5668;52.012;8.724;2023-03-03T11:38:29;101148.00;;;4.76;86.95
11223;BME280;5668;52.012;8.724;2023-03-03T11:41:03;101145.41;;;4.77;87.01
11223;BME280;5668;52.012;8.724;2023-03-03T11:43:39;101148.84;;;4.76;87.38
11223;BME280;5668;52.012;8.724;2023-03-03T11:46:14;101141.81;;;4.81;87.21
11223;BME280;5668;52.012;8.724;2023-03-03T11:48:47;101150.28;;;4.85;86.99
11223;BME280;5668;52.012;8.724;2023-03-03T11:51:22;101146.00;;;4.85;86.96
11223;BME280;5668;52.012;8.724;2023-03-03T11:54:03;101149.28;;;4.89;86.93
11223;BME280;5668;52.012;8.724;2023-03-03T11:56:37;101150.03;;;4.92;87.43
11223;BME280;5668;52.012;8.724;2023-03-03T11:59:25;101146.47;;;4.96;87.41
11223;BME280;5668;52.012;8.724;2023-03-03T12:02:02;101144.69;;;4.98;86.74
11223;BME280;5668;52.012;8.724;2023-03-03T12:04:38;101144.56;;;5.03;86.65
11223;BME280;5668;52.012;8.724;2023-03-03T12:07:17;101131.50;;;5.07;86.59
11223;BME280;5668;52.012;8.724;2023-03-03T12:09:55;101125.47;;;5.09;86.16
11223;BME280;5668;52.012;8.724;2023-03-03T12:12:31;101134.88;;;5.10;85.86
11223;BME280;5668;52.012;8.724;2023-03-03T12:15:08;101128.84;;;5.11;85.98
11223;BME280;5668;52.012;8.724;2023-03-03T12:18:02;101128.72;;;5.14;85.35
11223;BME280;5668;52.012;8.724;2023-03-03T12:20:39;101124.34;;;5.16;85.95
11223;BME280;5668;52.012;8.724;2023-03-03T12:23:24;101122.44;;;5.21;85.75
11223;BME280;5668;52.012;8.724;2023-03-03T12:26:01;101118.09;;;5.23;84.99
11223;BME280;5668;52.012;8.724;2023-03-03T12:28:33;101112.06;;;5.24;85.48
11223;BME280;5668;52.012;8.724;2023-03-03T12:31:20;101111.88;;;5.28;85.51
11223;BME280;5668;52.012;8.724;2023-03-03T12:33:56;101112.63;;;5.32;85.35
11223;BME280;5668;52.012;8.724;2023-03-03T12:36:42;101105.66;;;5.34;84.71
11223;BME280;5668;52.012;8.724;2023-03-03T12:39:21;101102.19;;;5.35;84.83
11223;BME280;5668;52.012;8.724;2023-03-03T12:41:58;101103.00;;;5.37;85.23
11223;BME280;5668;52.012;8.724;2023-03-03T12:44:32;101092.50;;;5.41;85.04
11223;BME280;5668;52.012;8.724;2023-03-03T12:47:08;101084.66;;;5.44;85.26
11223;BME280;5668;52.012;8.724;2023-03-03T12:49:44;101086.41;;;5.44;84.67
11223;BME280;5668;52.012;8.724;2023-03-03T12:52:24;101086.19;;;5.50;85.02
11223;BME280;5668;52.012;8.724;2023-03-03T12:55:04;101084.28;;;5.55;84.96
11223;BME280;5668;52.012;8.724;2023-03-03T12:57:42;101078.97;;;5.60;84.81
11223;BME280;5668;52.012;8.724;2023-03-03T13:00:24;101082.28;;;5.63;84.62
11223;BME280;5668;52.012;8.724;2023-03-03T13:02:59;101084.00;;;5.63;84.17
11223;BME280;5668;52.012;8.724;2023-03-03T13:05:41;101076.19;;;5.64;84.34
11223;BME280;5668;52.012;8.724;2023-03-03T13:08:22;101077.72;;;5.70;84.01
11223;BME280;5668;52.012;8.724;2023-03-03T13:11:00;101070.59;;;5.76;84.72
11223;BME280;5668;52.012;8.724;2023-03-03T13:13:38;101066.88;;;5.83;84.79
11223;BME280;5668;52.012;8.724;2023-03-03T13:16:11;101070.94;;;5.91;84.99
11223;BME280;5668;52.012;8.724;2023-03-03T13:18:50;101064.59;;;5.99;85.18
11223;BME280;5668;52.012;8.724;2023-03-03T13:21:25;101069.56;;;6.04;84.10
11223;BME280;5668;52.012;8.724;2023-03-03T13:23:57;101072.94;;;6.06;83.92
11223;BME280;5668;52.012;8.724;2023-03-03T13:26:30;101062.41;;;6.10;83.52
11223;BME280;5668;52.012;8.724;2023-03-03T13:29:08;101054.81;;;6.07;82.45
11223;BME280;5668;52.012;8.724;2023-03-03T13:31:45;101056.19;;;6.16;82.69
11223;BME280;5668;52.012;8.724;2023-03-03T13:34:21;101059.47;;;6.19;82.17
11223;BME280;5668;52.012;8.724;2023-03-03T13:36:57;101050.78;;;6.22;82.82
11223;BME280;5668;52.012;8.724;2023-03-03T13:39:31;101046.31;;;6.26;82.18
11223;BME280;5668;52.012;8.724;2023-03-03T13:42:01;101047.06;;;6.29;82.72
11223;BME280;5668;52.012;8.724;2023-03-03T13:44:33;101048.59;;;6.33;82.76
11223;BME280;5668;52.012;8.724;2023-03-03T13:47:12;101047.44;;;6.40;83.38